sensor_id;sensor_type;location;lat;lon;timestamp;temperature;humidity
3262;DHT22;1643;47.746;9.000;2023-08-20T00:00:10;25.80;99.90
3262;DHT22;1643;47.746;9.000;2023-08-20T00:02:37;25.70;99.90
3262;DHT22;1643;47.746;9.000;2023-08-20T00:05:03;25.70;99.90
3262;DHT22;1643;47.746;9.000;2023-08-20T00:07:31;25.70;99.90
3262;DHT22;1643;47.746;9.000;2023-08-20T00:09:56;25.70;99.90
3262;DHT22;1643;47.746;9.000;2023-08-20T00:12:22;25.60;99.90
3262;DHT22;1643;47.746;9.000;2023-08-20T00:14:59;25.60;99.90
3262;DHT22;1643;47.746;9.000;2023-08-20T00:17:34;25.60;99.90
3262;DHT22;1643;47.746;9.000;2023-08-20T00:20:00;25.60;99.90
3262;DHT22;1643;47.746;9.000;2023-08-20T00:22:27;25.60;99.90
3262;DHT22;1643;47.746;9.000;2023-08-20T00:24:53;25.60;99.90
3262;DHT22;1643;47.746;9.000;2023-08-20T00:27:20;25.50;99.90
3262;DHT22;1643;47.746;9.000;2023-08-20T00:29:45;25.50;99.90
3262;DHT22;1643;47.746;9.000;2023-08-20T00:32:11;25.50;99.90
3262;DHT22;1643;47.746;9.000;2023-08-20T00:34:37;25.40;99.90
3262;DHT22;1643;47.746;9.000;2023-08-20T00:37:03;25.40;99.90
3262;DHT22;1643;47.746;9.000;2023-08-20T00:39:31;25.40;99.90
3262;DHT22;1643;47.746;9.000;2023-08-20T00:41:57;25.30;99.90
3262;DHT22;1643;47.746;9.000;2023-08-20T00:44:23;25.20;99.90
3262;DHT22;1643;47.746;9.000;2023-08-20T00:46:50;25.20;99.90
3262;DHT22;1643;47.746;9.000;2023-08-20T00:49:17;25.20;99.90
3262;DHT22;1643;47.746;9.000;2023-08-20T00:51:43;25.20;99.90
3262;DHT22;1643;47.746;9.000;2023-08-20T00:54:10;25.30;99.90
3262;DHT22;1643;47.746;9.000;2023-08-20T00:56:35;25.20;99.90
3262;DHT22;1643;47.746;9.000;2023-08-20T00:59:01;25.20;99.90
3262;DHT22;1643;47.746;9.000;2023-08-20T01:01:27;25.20;99.90
3262;DHT22;1643;47.746;9.000;2023-08-20T01:03:53;25.20;99.90
3262;DHT22;1643;47.746;9.000;2023-08-20T01:09:15;25.10;99.90
3262;DHT22;1643;47.746;9.000;2023-08-20T01:11:52;25.00;99.90
3262;DHT22;1643;47.746;9.000;2023-08-20T01:14:20;25.00;99.90
3262;DHT22;1643;47.746;9.000;2023-08-20T01:16:46;24.90;99.90
3262;DHT22;1643;47.746;9.000;2023-08-20T01:19:17;24.90;99.90
3262;DHT22;1643;47.746;9.000;2023-08-20T01:24:46;24.90;99.90
3262;DHT22;1643;47.746;9.000;2023-08-20T01:27:50;24.80;99.90
3262;DHT22;1643;47.746;9.000;2023-08-20T01:30:18;24.80;99.90
3262;DHT22;1643;47.746;9.000;2023-08-20T01:32:45;24.80;99.90
3262;DHT22;1643;47.746;9.000;2023-08-20T01:35:12;24.80;99.90
3262;DHT22;1643;47.746;9.000;2023-08-20T01:37:40;24.80;99.90
3262;DHT22;1643;47.746;9.000;2023-08-20T01:40:07;24.80;99.90
3262;DHT22;1643;47.746;9.000;2023-08-20T01:42:39;24.80;99.90
3262;DHT22;1643;47.746;9.000;2023-08-20T01:45:06;24.70;99.90
3262;DHT22;1643;47.746;9.000;2023-08-20T01:47:32;24.70;99.90
3262;DHT22;1643;47.746;9.000;2023-08-20T01:49:58;24.70;99.90
3262;DHT22;1643;47.746;9.000;2023-08-20T01:52:24;24.60;99.90
3262;DHT22;1643;47.746;9.000;2023-08-20T01:54:50;24.60;99.90
3262;DHT22;1643;47.746;9.000;2023-08-20T01:57:16;24.50;99.90
3262;DHT22;1643;47.746;9.000;2023-08-20T01:59:42;24.40;99.90
3262;DHT22;1643;47.746;9.000;2023-08-20T02:02:08;24.40;99.90
3262;DHT22;1643;47.746;9.000;2023-08-20T02:04:34;24.40;99.90
3262;DHT22;1643;47.746;9.000;2023-08-20T02:06:59;24.40;99.90
3262;DHT22;1643;47.746;9.000;2023-08-20T02:09:25;24.30;99.90
3262;DHT22;1643;47.746;9.000;2023-08-20T02:11:51;24.30;99.90
3262;DHT22;1643;47.746;9.000;2023-08-20T02:14:17;24.30;99.90
3262;DHT22;1643;47.746;9.000;2023-08-20T02:16:43;24.30;99.90
3262;DHT22;1643;47.746;9.000;2023-08-20T02:19:09;24.30;99.90
3262;DHT22;1643;47.746;9.000;2023-08-20T02:21:35;24.30;99.90
3262;DHT22;1643;47.746;9.000;2023-08-20T02:24:01;24.30;99.90
3262;DHT22;1643;47.746;9.000;2023-08-20T02:26:27;24.20;99.90
3262;DHT22;1643;47.746;9.000;2023-08-20T02:28:52;24.20;99.90
3262;DHT22;1643;47.746;9.000;2023-08-20T02:31:18;24.20;99.90
3262;DHT22;1643;47.746;9.000;2023-08-20T02:33:44;24.10;99.90
3262;DHT22;1643;47.746;9.000;2023-08-20T02:36:09;24.10;99.90
3262;DHT22;1643;47.746;9.000;2023-08-20T02:38:35;24.10;99.90
3262;DHT22;1643;47.746;9.000;2023-08-20T02:41:03;24.00;99.90
3262;DHT22;1643;47.746;9.000;2023-08-20T02:43:29;24.00;99.90
3262;DHT22;1643;47.746;9.000;2023-08-20T02:45:55;24.00;99.90
3262;DHT22;1643;47.746;9.000;2023-08-20T02:48:20;23.90;99.90
3262;DHT22;1643;47.746;9.000;2023-08-20T02:50:46;23.90;99.90
3262;DHT22;1643;47.746;9.000;2023-08-20T02:53:12;23.80;99.90
3262;DHT22;1643;47.746;9.000;2023-08-20T02:55:38;23.80;99.90
3262;DHT22;1643;47.746;9.000;2023-08-20T02:58:03;23.80;99.90
3262;DHT22;1643;47.746;9.000;2023-08-20T03:00:30;23.80;99.90
3262;DHT22;1643;47.746;9.000;2023-08-20T03:02:56;23.70;99.90
3262;DHT22;1643;47.746;9.000;2023-08-20T03:05:22;23.70;99.90
3262;DHT22;1643;47.746;9.000;2023-08-20T03:07:47;23.70;99.90
3262;DHT22;1643;47.746;9.000;2023-08-20T03:10:13;23.60;99.90
3262;DHT22;1643;47.746;9.000;2023-08-20T03:12:39;23.60;99.90
3262;DHT22;1643;47.746;9.000;2023-08-20T03:15:05;23.60;99.90
3262;DHT22;1643;47.746;9.000;2023-08-20T03:17:30;23.50;99.90
3262;DHT22;1643;47.746;9.000;2023-08-20T03:19:57;23.50;99.90
3262;DHT22;1643;47.746;9.000;2023-08-20T03:22:24;23.50;99.90
3262;DHT22;1643;47.746;9.000;2023-08-20T03:24:50;23.50;99.90
3262;DHT22;1643;47.746;9.000;2023-08-20T03:27:16;23.60;99.90
3262;DHT22;1643;47.746;9.000;2023-08-20T03:29:42;23.60;99.90
3262;DHT22;1643;47.746;9.000;2023-08-20T03:32:08;23.60;99.90
3262;DHT22;1643;47.746;9.000;2023-08-20T03:34:33;23.60;99.90
3262;DHT22;1643;47.746;9.000;2023-08-20T03:36:59;23.50;99.90
3262;DHT22;1643;47.746;9.000;2023-08-20T03:39:25;23.50;99.90
3262;DHT22;1643;47.746;9.000;2023-08-20T03:41:51;23.40;99.90
3262;DHT22;1643;47.746;9.000;2023-08-20T03:44:17;23.40;99.90
3262;DHT22;1643;47.746;9.000;2023-08-20T03:46:43;23.50;99.90
3262;DHT22;1643;47.746;9.000;2023-08-20T03:49:08;23.50;99.90
3262;DHT22;1643;47.746;9.000;2023-08-20T03:51:34;23.40;99.90
3262;DHT22;1643;47.746;9.000;2023-08-20T03:54:00;23.40;99.90
3262;DHT22;1643;47.746;9.000;2023-08-20T03:56:25;23.40;99.90
3262;DHT22;1643;47.746;9.000;2023-08-20T03:58:51;23.40;99.90
3262;DHT22;1643;47.746;9.000;2023-08-20T04:01:18;23.40;99.90
3262;DHT22;1643;47.746;9.000;2023-08-20T04:03:45;23.40;99.90
3262;DHT22;1643;47.746;9.000;2023-08-20T04:06:11;23.30;99.90
3262;DHT22;1643;47.746;9.000;2023-08-20T04:08:36;23.30;99.90
3262;DHT22;1643;47.746;9.000;2023-08-20T04:11:02;23.30;99.90
3262;DHT22;1643;47.746;9.000;2023-08-20T04:13:29;23.30;99.90
3262;DHT22;1643;47.746;9.000;2023-08-20T04:15:55;23.20;99.90
3262;DHT22;1643;47.746;9.000;2023-08-20T04:18:21;23.20;99.90
3262;DHT22;1643;47.746;9.000;2023-08-20T04:20:49;23.20;99.90
3262;DHT22;1643;47.746;9.000;2023-08-20T04:23:15;23.20;99.90
3262;DHT22;1643;47.746;9.000;2023-08-20T04:25:40;23.30;99.90
3262;DHT22;1643;47.746;9.000;2023-08-20T04:28:06;23.20;99.90
3262;DHT22;1643;47.746;9.000;2023-08-20T04:30:34;23.20;99.90
3262;DHT22;1643;47.746;9.000;2023-08-20T04:32:59;23.20;99.90
3262;DHT22;1643;47.746;9.000;2023-08-20T04:35:25;23.20;99.90
3262;DHT22;1643;47.746;9.000;2023-08-20T04:37:51;23.10;99.90
3262;DHT22;1643;47.746;9.000;2023-08-20T04:40:16;23.10;99.90
3262;DHT22;1643;47.746;9.000;2023-08-20T04:42:42;23.10;99.90
3262;DHT22;1643;47.746;9.000;2023-08-20T04:45:08;23.10;99.90
3262;DHT22;1643;47.746;9.000;2023-08-20T04:47:34;23.10;99.90
3262;DHT22;1643;47.746;9.000;2023-08-20T04:49:59;23.00;99.90
3262;DHT22;1643;47.746;9.000;2023-08-20T04:52:25;23.00;99.90
3262;DHT22;1643;47.746;9.000;2023-08-20T04:54:51;22.90;99.90
3262;DHT22;1643;47.746;9.000;2023-08-20T04:57:16;22.90;99.90
3262;DHT22;1643;47.746;9.000;2023-08-20T04:59:42;22.90;99.90
3262;DHT22;1643;47.746;9.000;2023-08-20T05:02:13;22.80;99.90
3262;DHT22;1643;47.746;9.000;2023-08-20T05:04:40;22.80;99.90
3262;DHT22;1643;47.746;9.000;2023-08-20T05:07:05;22.70;99.90
3262;DHT22;1643;47.746;9.000;2023-08-20T05:09:32;22.70;99.90
3262;DHT22;1643;47.746;9.000;2023-08-20T05:11:58;22.80;99.90
3262;DHT22;1643;47.746;9.000;2023-08-20T05:14:24;22.80;99.90
3262;DHT22;1643;47.746;9.000;2023-08-20T05:16:49;22.90;99.90
3262;DHT22;1643;47.746;9.000;2023-08-20T05:19:15;22.90;99.90
3262;DHT22;1643;47.746;9.000;2023-08-20T05:21:41;23.00;99.90
3262;DHT22;1643;47.746;9.000;2023-08-20T05:24:07;23.00;99.90
3262;DHT22;1643;47.746;9.000;2023-08-20T05:26:34;23.00;99.90
3262;DHT22;1643;47.746;9.000;2023-08-20T05:28:59;22.90;99.90
3262;DHT22;1643;47.746;9.000;2023-08-20T05:31:25;23.00;99.90
3262;DHT22;1643;47.746;9.000;2023-08-20T05:33:51;23.00;99.90
3262;DHT22;1643;47.746;9.000;2023-08-20T05:36:16;23.00;99.90
3262;DHT22;1643;47.746;9.000;2023-08-20T05:38:42;23.10;99.90
3262;DHT22;1643;47.746;9.000;2023-08-20T05:41:08;23.20;99.90
3262;DHT22;1643;47.746;9.000;2023-08-20T05:43:34;23.20;99.90
3262;DHT22;1643;47.746;9.000;2023-08-20T05:46:02;23.30;99.90
3262;DHT22;1643;47.746;9.000;2023-08-20T05:48:28;23.30;99.90
3262;DHT22;1643;47.746;9.000;2023-08-20T05:50:53;23.30;99.90
3262;DHT22;1643;47.746;9.000;2023-08-20T05:53:19;23.30;99.90
3262;DHT22;1643;47.746;9.000;2023-08-20T05:55:45;23.40;99.90
3262;DHT22;1643;47.746;9.000;2023-08-20T05:58:11;23.50;99.90
3262;DHT22;1643;47.746;9.000;2023-08-20T06:00:36;23.60;99.90
3262;DHT22;1643;47.746;9.000;2023-08-20T06:03:02;23.60;99.90
3262;DHT22;1643;47.746;9.000;2023-08-20T06:05:28;23.60;99.90
3262;DHT22;1643;47.746;9.000;2023-08-20T06:07:53;23.70;99.90
3262;DHT22;1643;47.746;9.000;2023-08-20T06:10:19;23.70;99.90
3262;DHT22;1643;47.746;9.000;2023-08-20T06:12:45;23.80;99.90
3262;DHT22;1643;47.746;9.000;2023-08-20T06:15:10;23.90;99.90
3262;DHT22;1643;47.746;9.000;2023-08-20T06:17:36;24.00;99.90
3262;DHT22;1643;47.746;9.000;2023-08-20T06:20:04;24.00;99.90
3262;DHT22;1643;47.746;9.000;2023-08-20T06:22:34;24.10;99.90
3262;DHT22;1643;47.746;9.000;2023-08-20T06:24:59;24.20;99.90
3262;DHT22;1643;47.746;9.000;2023-08-20T06:27:25;24.30;99.90
3262;DHT22;1643;47.746;9.000;2023-08-20T06:29:51;24.40;99.90
3262;DHT22;1643;47.746;9.000;2023-08-20T06:32:16;24.40;99.90
3262;DHT22;1643;47.746;9.000;2023-08-20T06:34:42;24.50;99.90
3262;DHT22;1643;47.746;9.000;2023-08-20T06:37:08;24.40;99.90
3262;DHT22;1643;47.746;9.000;2023-08-20T06:39:33;24.30;99.90
3262;DHT22;1643;47.746;9.000;2023-08-20T06:41:59;24.30;99.90
3262;DHT22;1643;47.746;9.000;2023-08-20T06:44:24;24.30;99.90
3262;DHT22;1643;47.746;9.000;2023-08-20T06:46:50;24.30;99.90
3262;DHT22;1643;47.746;9.000;2023-08-20T06:49:16;24.40;99.90
3262;DHT22;1643;47.746;9.000;2023-08-20T06:51:41;24.60;99.90
3262;DHT22;1643;47.746;9.000;2023-08-20T06:54:07;24.70;99.90
3262;DHT22;1643;47.746;9.000;2023-08-20T06:56:33;24.80;99.90
3262;DHT22;1643;47.746;9.000;2023-08-20T06:59:00;24.80;99.90
3262;DHT22;1643;47.746;9.000;2023-08-20T07:01:26;24.70;99.90
3262;DHT22;1643;47.746;9.000;2023-08-20T07:03:52;24.80;99.90
3262;DHT22;1643;47.746;9.000;2023-08-20T07:06:17;24.70;99.90
3262;DHT22;1643;47.746;9.000;2023-08-20T07:08:44;24.60;99.90
3262;DHT22;1643;47.746;9.000;2023-08-20T07:11:10;24.60;99.90
3262;DHT22;1643;47.746;9.000;2023-08-20T07:13:36;24.60;99.90
3262;DHT22;1643;47.746;9.000;2023-08-20T07:16:02;24.60;99.90
3262;DHT22;1643;47.746;9.000;2023-08-20T07:18:28;24.50;99.90
3262;DHT22;1643;47.746;9.000;2023-08-20T07:20:55;24.60;99.90
3262;DHT22;1643;47.746;9.000;2023-08-20T07:23:20;24.70;99.90
3262;DHT22;1643;47.746;9.000;2023-08-20T07:25:46;24.70;99.90
3262;DHT22;1643;47.746;9.000;2023-08-20T07:28:12;24.80;99.90
3262;DHT22;1643;47.746;9.000;2023-08-20T07:30:38;24.90;99.90
3262;DHT22;1643;47.746;9.000;2023-08-20T07:33:05;25.00;99.90
3262;DHT22;1643;47.746;9.000;2023-08-20T07:35:31;25.20;99.90
3262;DHT22;1643;47.746;9.000;2023-08-20T07:37:57;25.30;99.90
3262;DHT22;1643;47.746;9.000;2023-08-20T07:40:22;25.40;99.90
3262;DHT22;1643;47.746;9.000;2023-08-20T07:42:49;25.50;99.90
3262;DHT22;1643;47.746;9.000;2023-08-20T07:45:16;25.60;99.90
3262;DHT22;1643;47.746;9.000;2023-08-20T07:47:42;25.70;99.90
3262;DHT22;1643;47.746;9.000;2023-08-20T07:50:07;25.80;99.90
3262;DHT22;1643;47.746;9.000;2023-08-20T07:52:33;25.80;99.90
3262;DHT22;1643;47.746;9.000;2023-08-20T07:54:59;25.90;99.90
3262;DHT22;1643;47.746;9.000;2023-08-20T07:57:25;25.90;99.90
3262;DHT22;1643;47.746;9.000;2023-08-20T07:59:51;25.90;99.90
3262;DHT22;1643;47.746;9.000;2023-08-20T08:02:16;25.90;99.90
3262;DHT22;1643;47.746;9.000;2023-08-20T08:04:43;26.00;99.90
3262;DHT22;1643;47.746;9.000;2023-08-20T08:07:12;26.10;99.90
3262;DHT22;1643;47.746;9.000;2023-08-20T08:09:37;26.10;99.90
3262;DHT22;1643;47.746;9.000;2023-08-20T08:12:04;26.20;99.90
3262;DHT22;1643;47.746;9.000;2023-08-20T08:14:30;26.30;99.90
3262;DHT22;1643;47.746;9.000;2023-08-20T08:16:56;26.30;99.90
3262;DHT22;1643;47.746;9.000;2023-08-20T08:19:22;26.30;99.90
3262;DHT22;1643;47.746;9.000;2023-08-20T08:21:48;26.30;99.90
3262;DHT22;1643;47.746;9.000;2023-08-20T08:24:14;26.30;99.90
3262;DHT22;1643;47.746;9.000;2023-08-20T08:26:40;26.30;99.90
3262;DHT22;1643;47.746;9.000;2023-08-20T08:29:07;26.30;99.90
3262;DHT22;1643;47.746;9.000;2023-08-20T08:31:34;26.30;99.90
3262;DHT22;1643;47.746;9.000;2023-08-20T08:34:01;26.30;99.90
3262;DHT22;1643;47.746;9.000;2023-08-20T08:36:26;26.30;99.90
3262;DHT22;1643;47.746;9.000;2023-08-20T08:38:53;26.40;99.90
3262;DHT22;1643;47.746;9.000;2023-08-20T08:41:22;26.40;99.90
3262;DHT22;1643;47.746;9.000;2023-08-20T08:43:50;26.40;99.90
3262;DHT22;1643;47.746;9.000;2023-08-20T08:46:16;26.50;99.90
3262;DHT22;1643;47.746;9.000;2023-08-20T08:48:44;26.50;99.90
3262;DHT22;1643;47.746;9.000;2023-08-20T08:51:10;26.60;99.90
3262;DHT22;1643;47.746;9.000;2023-08-20T08:53:36;26.60;99.90
3262;DHT22;1643;47.746;9.000;2023-08-20T08:56:02;26.60;99.90
3262;DHT22;1643;47.746;9.000;2023-08-20T08:58:28;26.60;99.90
3262;DHT22;1643;47.746;9.000;2023-08-20T09:00:54;26.60;99.90
3262;DHT22;1643;47.746;9.000;2023-08-20T09:03:20;26.60;99.90
3262;DHT22;1643;47.746;9.000;2023-08-20T09:05:51;26.60;99.90
3262;DHT22;1643;47.746;9.000;2023-08-20T09:08:25;26.70;99.90
3262;DHT22;1643;47.746;9.000;2023-08-20T09:10:54;26.80;99.90
3262;DHT22;1643;47.746;9.000;2023-08-20T09:16:06;26.80;99.90
3262;DHT22;1643;47.746;9.000;2023-08-20T09:18:33;26.80;99.90
3262;DHT22;1643;47.746;9.000;2023-08-20T09:20:59;26.90;99.90
3262;DHT22;1643;47.746;9.000;2023-08-20T09:23:28;27.00;99.90
3262;DHT22;1643;47.746;9.000;2023-08-20T09:25:55;26.90;99.90
3262;DHT22;1643;47.746;9.000;2023-08-20T09:28:20;26.90;99.90
3262;DHT22;1643;47.746;9.000;2023-08-20T09:30:59;27.00;99.90
3262;DHT22;1643;47.746;9.000;2023-08-20T09:33:29;27.10;99.90
3262;DHT22;1643;47.746;9.000;2023-08-20T09:35:54;27.00;99.90
3262;DHT22;1643;47.746;9.000;2023-08-20T09:38:21;27.00;99.90
3262;DHT22;1643;47.746;9.000;2023-08-20T09:40:55;27.10;99.90
3262;DHT22;1643;47.746;9.000;2023-08-20T09:43:24;27.20;99.90
3262;DHT22;1643;47.746;9.000;2023-08-20T09:45:55;27.20;99.90
3262;DHT22;1643;47.746;9.000;2023-08-20T09:48:24;27.30;99.90
3262;DHT22;1643;47.746;9.000;2023-08-20T09:50:55;27.30;99.90
3262;DHT22;1643;47.746;9.000;2023-08-20T09:53:37;27.40;99.90
3262;DHT22;1643;47.746;9.000;2023-08-20T09:56:27;27.40;99.90
3262;DHT22;1643;47.746;9.000;2023-08-20T09:58:54;27.40;99.90
3262;DHT22;1643;47.746;9.000;2023-08-20T10:01:20;27.40;99.90
3262;DHT22;1643;47.746;9.000;2023-08-20T10:03:46;27.50;99.90
3262;DHT22;1643;47.746;9.000;2023-08-20T10:06:12;27.60;99.90
3262;DHT22;1643;47.746;9.000;2023-08-20T10:08:38;27.60;99.90
3262;DHT22;1643;47.746;9.000;2023-08-20T10:11:04;27.60;99.90
3262;DHT22;1643;47.746;9.000;2023-08-20T10:13:30;27.70;99.90
3262;DHT22;1643;47.746;9.000;2023-08-20T10:15:56;27.80;99.90
3262;DHT22;1643;47.746;9.000;2023-08-20T10:18:22;27.90;99.90
3262;DHT22;1643;47.746;9.000;2023-08-20T10:20:51;27.90;99.90
3262;DHT22;1643;47.746;9.000;2023-08-20T10:23:21;28.00;99.90
3262;DHT22;1643;47.746;9.000;2023-08-20T10:25:52;28.00;99.90
3262;DHT22;1643;47.746;9.000;2023-08-20T10:28:25;28.10;99.90
3262;DHT22;1643;47.746;9.000;2023-08-20T10:31:08;28.20;99.90
3262;DHT22;1643;47.746;9.000;2023-08-20T10:33:35;28.20;99.90
3262;DHT22;1643;47.746;9.000;2023-08-20T10:38:41;28.30;99.90
3262;DHT22;1643;47.746;9.000;2023-08-20T10:41:07;28.40;99.90
3262;DHT22;1643;47.746;9.000;2023-08-20T10:43:45;28.40;99.90
3262;DHT22;1643;47.746;9.000;2023-08-20T10:46:24;28.50;99.90
3262;DHT22;1643;47.746;9.000;2023-08-20T10:48:51;28.70;99.90
3262;DHT22;1643;47.746;9.000;2023-08-20T10:54:01;28.80;99.90
3262;DHT22;1643;47.746;9.000;2023-08-20T10:56:53;28.90;99.90
3262;DHT22;1643;47.746;9.000;2023-08-20T10:59:25;28.90;99.90
3262;DHT22;1643;47.746;9.000;2023-08-20T11:01:53;28.90;99.90
3262;DHT22;1643;47.746;9.000;2023-08-20T11:04:23;29.00;99.90
3262;DHT22;1643;47.746;9.000;2023-08-20T11:06:57;29.10;99.90
3262;DHT22;1643;47.746;9.000;2023-08-20T11:09:28;29.10;99.90
3262;DHT22;1643;47.746;9.000;2023-08-20T11:11:55;29.20;99.90
3262;DHT22;1643;47.746;9.000;2023-08-20T11:14:21;29.30;99.90
3262;DHT22;1643;47.746;9.000;2023-08-20T11:16:47;29.40;99.90
3262;DHT22;1643;47.746;9.000;2023-08-20T11:19:23;29.40;99.90
3262;DHT22;1643;47.746;9.000;2023-08-20T11:21:49;29.50;99.90
3262;DHT22;1643;47.746;9.000;2023-08-20T11:24:16;29.50;99.90
3262;DHT22;1643;47.746;9.000;2023-08-20T11:26:43;29.60;99.90
3262;DHT22;1643;47.746;9.000;2023-08-20T11:29:14;29.60;99.90
3262;DHT22;1643;47.746;9.000;2023-08-20T11:31:41;29.70;99.90
3262;DHT22;1643;47.746;9.000;2023-08-20T11:34:07;29.80;99.90
3262;DHT22;1643;47.746;9.000;2023-08-20T11:36:36;29.80;99.90
3262;DHT22;1643;47.746;9.000;2023-08-20T11:39:04;29.80;99.90
3262;DHT22;1643;47.746;9.000;2023-08-20T11:41:30;29.90;99.90
3262;DHT22;1643;47.746;9.000;2023-08-20T11:43:56;30.00;99.90
3262;DHT22;1643;47.746;9.000;2023-08-20T11:46:23;30.00;99.90
3262;DHT22;1643;47.746;9.000;2023-08-20T11:49:09;29.90;99.90
3262;DHT22;1643;47.746;9.000;2023-08-20T11:51:55;30.00;99.90
3262;DHT22;1643;47.746;9.000;2023-08-20T11:54:22;30.00;99.90
3262;DHT22;1643;47.746;9.000;2023-08-20T11:56:51;30.10;99.90
3262;DHT22;1643;47.746;9.000;2023-08-20T11:59:18;30.30;99.90
3262;DHT22;1643;47.746;9.000;2023-08-20T12:01:56;30.30;99.90
3262;DHT22;1643;47.746;9.000;2023-08-20T12:04:25;30.40;99.90
3262;DHT22;1643;47.746;9.000;2023-08-20T12:07:10;30.40;99.60
3262;DHT22;1643;47.746;9.000;2023-08-20T12:09:38;30.50;99.20
3262;DHT22;1643;47.746;9.000;2023-08-20T12:12:06;30.50;98.90
3262;DHT22;1643;47.746;9.000;2023-08-20T12:14:32;30.70;98.70
3262;DHT22;1643;47.746;9.000;2023-08-20T12:16:58;30.70;98.10
3262;DHT22;1643;47.746;9.000;2023-08-20T12:19:24;30.70;97.90
3262;DHT22;1643;47.746;9.000;2023-08-20T12:21:49;30.80;98.20
3262;DHT22;1643;47.746;9.000;2023-08-20T12:24:16;30.80;98.30
3262;DHT22;1643;47.746;9.000;2023-08-20T12:26:42;30.90;98.10
3262;DHT22;1643;47.746;9.000;2023-08-20T12:29:08;30.90;97.90
3262;DHT22;1643;47.746;9.000;2023-08-20T12:31:34;31.00;98.10
3262;DHT22;1643;47.746;9.000;2023-08-20T12:34:00;31.00;98.10
3262;DHT22;1643;47.746;9.000;2023-08-20T12:36:28;31.00;98.20
3262;DHT22;1643;47.746;9.000;2023-08-20T12:38:54;31.10;98.30
3262;DHT22;1643;47.746;9.000;2023-08-20T12:41:20;31.30;98.20
3262;DHT22;1643;47.746;9.000;2023-08-20T12:43:46;31.50;98.50
3262;DHT22;1643;47.746;9.000;2023-08-20T12:46:11;31.50;97.80
3262;DHT22;1643;47.746;9.000;2023-08-20T12:48:39;31.70;97.70
3262;DHT22;1643;47.746;9.000;2023-08-20T12:51:05;31.80;97.30
3262;DHT22;1643;47.746;9.000;2023-08-20T12:53:31;31.80;96.80
3262;DHT22;1643;47.746;9.000;2023-08-20T12:55:57;31.80;96.80
3262;DHT22;1643;47.746;9.000;2023-08-20T12:58:22;31.80;96.90
3262;DHT22;1643;47.746;9.000;2023-08-20T13:00:48;31.90;97.00
3262;DHT22;1643;47.746;9.000;2023-08-20T13:03:14;31.90;97.20
3262;DHT22;1643;47.746;9.000;2023-08-20T13:05:40;32.00;97.20
3262;DHT22;1643;47.746;9.000;2023-08-20T13:08:06;32.00;97.00
3262;DHT22;1643;47.746;9.000;2023-08-20T13:10:32;32.10;96.70
3262;DHT22;1643;47.746;9.000;2023-08-20T13:13:01;32.10;96.00
3262;DHT22;1643;47.746;9.000;2023-08-20T13:15:27;32.00;95.70
3262;DHT22;1643;47.746;9.000;2023-08-20T13:17:53;32.00;95.50
3262;DHT22;1643;47.746;9.000;2023-08-20T13:20:19;32.10;95.40
3262;DHT22;1643;47.746;9.000;2023-08-20T13:22:50;32.10;95.10
3262;DHT22;1643;47.746;9.000;2023-08-20T13:25:17;32.00;95.00
3262;DHT22;1643;47.746;9.000;2023-08-20T13:27:42;32.10;94.80
3262;DHT22;1643;47.746;9.000;2023-08-20T13:30:09;32.00;94.40
3262;DHT22;1643;47.746;9.000;2023-08-20T13:32:35;32.10;94.50
3262;DHT22;1643;47.746;9.000;2023-08-20T13:35:01;32.30;93.70
3262;DHT22;1643;47.746;9.000;2023-08-20T13:37:28;32.40;92.90
3262;DHT22;1643;47.746;9.000;2023-08-20T13:39:56;32.60;92.90
3262;DHT22;1643;47.746;9.000;2023-08-20T13:42:22;32.70;92.60
3262;DHT22;1643;47.746;9.000;2023-08-20T13:44:48;32.80;92.00
3262;DHT22;1643;47.746;9.000;2023-08-20T13:47:13;32.80;91.40
3262;DHT22;1643;47.746;9.000;2023-08-20T13:49:39;32.80;90.90
3262;DHT22;1643;47.746;9.000;2023-08-20T13:52:04;32.90;90.60
3262;DHT22;1643;47.746;9.000;2023-08-20T13:54:30;33.10;90.40
3262;DHT22;1643;47.746;9.000;2023-08-20T13:56:56;33.00;89.50
3262;DHT22;1643;47.746;9.000;2023-08-20T13:59:23;32.90;88.50
3262;DHT22;1643;47.746;9.000;2023-08-20T14:01:48;33.10;87.60
3262;DHT22;1643;47.746;9.000;2023-08-20T14:04:14;33.10;86.80
3262;DHT22;1643;47.746;9.000;2023-08-20T14:06:40;32.90;86.30
3262;DHT22;1643;47.746;9.000;2023-08-20T14:09:05;32.80;86.40
3262;DHT22;1643;47.746;9.000;2023-08-20T14:11:31;32.80;85.40
3262;DHT22;1643;47.746;9.000;2023-08-20T14:13:57;33.00;84.30
3262;DHT22;1643;47.746;9.000;2023-08-20T14:16:22;33.00;83.60
3262;DHT22;1643;47.746;9.000;2023-08-20T14:18:48;33.10;82.70
3262;DHT22;1643;47.746;9.000;2023-08-20T14:21:14;33.10;81.80
3262;DHT22;1643;47.746;9.000;2023-08-20T14:23:39;33.30;80.90
3262;DHT22;1643;47.746;9.000;2023-08-20T14:26:06;33.50;79.60
3262;DHT22;1643;47.746;9.000;2023-08-20T14:28:32;33.60;77.80
3262;DHT22;1643;47.746;9.000;2023-08-20T14:31:02;33.50;76.70
3262;DHT22;1643;47.746;9.000;2023-08-20T14:33:31;33.40;76.90
3262;DHT22;1643;47.746;9.000;2023-08-20T14:35:57;33.60;77.30
3262;DHT22;1643;47.746;9.000;2023-08-20T14:38:23;33.60;75.70
3262;DHT22;1643;47.746;9.000;2023-08-20T14:40:49;33.60;75.40
3262;DHT22;1643;47.746;9.000;2023-08-20T14:43:14;33.50;75.90
3262;DHT22;1643;47.746;9.000;2023-08-20T14:45:40;33.30;77.00
3262;DHT22;1643;47.746;9.000;2023-08-20T14:48:05;33.20;77.80
3262;DHT22;1643;47.746;9.000;2023-08-20T14:50:32;33.00;78.60
3262;DHT22;1643;47.746;9.000;2023-08-20T14:52:58;33.20;79.20
3262;DHT22;1643;47.746;9.000;2023-08-20T14:55:24;33.30;79.80
3262;DHT22;1643;47.746;9.000;2023-08-20T14:57:49;33.40;80.40
3262;DHT22;1643;47.746;9.000;2023-08-20T15:00:15;33.60;80.50
3262;DHT22;1643;47.746;9.000;2023-08-20T15:02:43;33.70;80.50
3262;DHT22;1643;47.746;9.000;2023-08-20T15:05:10;33.80;79.80
3262;DHT22;1643;47.746;9.000;2023-08-20T15:07:36;33.80;79.10
3262;DHT22;1643;47.746;9.000;2023-08-20T15:10:02;33.90;77.70
3262;DHT22;1643;47.746;9.000;2023-08-20T15:12:28;33.90;76.00
3262;DHT22;1643;47.746;9.000;2023-08-20T15:14:53;33.90;75.40
3262;DHT22;1643;47.746;9.000;2023-08-20T15:17:19;33.90;74.90
3262;DHT22;1643;47.746;9.000;2023-08-20T15:19:45;33.90;73.90
3262;DHT22;1643;47.746;9.000;2023-08-20T15:22:10;33.90;73.90
3262;DHT22;1643;47.746;9.000;2023-08-20T15:24:36;33.90;73.30
3262;DHT22;1643;47.746;9.000;2023-08-20T15:27:02;33.90;73.00
3262;DHT22;1643;47.746;9.000;2023-08-20T15:29:28;33.80;73.10
3262;DHT22;1643;47.746;9.000;2023-08-20T15:31:54;33.50;73.40
3262;DHT22;1643;47.746;9.000;2023-08-20T15:34:20;33.20;73.60
3262;DHT22;1643;47.746;9.000;2023-08-20T15:36:45;33.10;75.00
3262;DHT22;1643;47.746;9.000;2023-08-20T15:39:11;33.10;74.50
3262;DHT22;1643;47.746;9.000;2023-08-20T15:41:38;33.30;74.50
3262;DHT22;1643;47.746;9.000;2023-08-20T15:44:04;33.60;74.50
3262;DHT22;1643;47.746;9.000;2023-08-20T15:46:29;33.60;73.10
3262;DHT22;1643;47.746;9.000;2023-08-20T15:48:55;33.80;72.20
3262;DHT22;1643;47.746;9.000;2023-08-20T15:51:20;33.80;71.30
3262;DHT22;1643;47.746;9.000;2023-08-20T15:53:46;33.80;71.30
3262;DHT22;1643;47.746;9.000;2023-08-20T15:56:12;33.90;71.00
3262;DHT22;1643;47.746;9.000;2023-08-20T15:58:38;33.90;70.20
3262;DHT22;1643;47.746;9.000;2023-08-20T16:01:04;33.70;70.30
3262;DHT22;1643;47.746;9.000;2023-08-20T16:03:29;33.50;70.10
3262;DHT22;1643;47.746;9.000;2023-08-20T16:05:55;33.30;70.00
3262;DHT22;1643;47.746;9.000;2023-08-20T16:08:21;33.20;70.30
3262;DHT22;1643;47.746;9.000;2023-08-20T16:10:47;33.00;70.70
3262;DHT22;1643;47.746;9.000;2023-08-20T16:13:13;32.90;71.50